Time;durP1;ratioP1;P1;durP2;ratioP2;P2;SDS_P1;SDS_P2;PMS_P1;PMS_P2;Temp;Humidity;BMP_temperature;BMP_pressure;BME280_temperature;BME280_humidity;BME280_pressure;Samples;Min_cycle;Max_cycle;Signal;HPM_P1;HPM_P2
2023/10/08 00:03:10;;;;;;;;;;;16.80;54.80;;;15.92;56.75;101405.78;12259890;19;19922;-85
2023/10/08 00:07:12;;;;;;;;;;;16.80;54.80;;;15.72;56.83;101379.13;12259684;19;19947;-84
2023/10/08 00:11:15;;;;;;;;;;;16.80;54.80;;;15.84;56.65;101408.09;12262742;19;19923;-84
2023/10/08 00:15:17;;;;;;;;;;;16.80;54.80;;;15.75;56.59;101413.97;12260285;19;19930;-84
2023/10/08 00:19:19;;;;;;;;;;;16.80;54.80;;;15.95;56.87;101438.16;12258838;19;19919;-85
2023/10/08 00:23:21;;;;;;;;;;;16.90;54.80;;;15.93;56.68;101420.66;12263713;19;19931;-85
2023/10/08 00:27:23;;;;;;;;;;;16.80;54.80;;;15.78;56.72;101411.13;12264768;19;19943;-85
2023/10/08 00:31:37;;;;;;;;;;;16.80;54.80;;;15.81;56.66;101424.09;12256050;19;19921;-84
2023/10/08 00:35:41;;;;;;;;;;;16.80;54.70;;;15.87;56.80;101452.66;12252913;19;20299;-85
2023/10/08 00:39:43;;;;;;;;;;;16.80;54.70;;;15.79;56.76;101436.53;12251439;19;20263;-84
2023/10/08 00:43:45;;;;;;;;;;;16.80;54.80;;;15.78;56.60;101429.56;12254898;19;20329;-84
2023/10/08 00:47:47;;;;;;;;;;;16.80;54.80;;;15.83;56.88;101452.97;12253151;19;19922;-84
2023/10/08 00:52:19;;;;;;;;;;;16.80;54.80;;;15.79;56.89;101447.06;12252329;19;20326;-84
2023/10/08 00:56:20;;;;;;;;;;;16.80;54.80;;;15.77;56.90;101446.34;12253508;19;19915;-84
2023/10/08 01:00:22;;;;;;;;;;;16.80;54.80;;;15.81;56.94;101468.88;12255182;19;19939;-84
2023/10/08 01:04:34;;;;;;;;;;;16.70;54.80;;;15.77;56.95;101469.16;12253982;19;19992;-84
2023/10/08 01:08:36;;;;;;;;;;;16.70;54.80;;;15.66;57.02;101462.78;12251275;19;19914;-84
2023/10/08 01:12:54;;;;;;;;;;;16.70;54.80;;;15.77;56.99;101485.84;12249764;19;20222;-84
2023/10/08 01:16:55;;;;;;;;;;;16.70;55.00;;;15.76;56.90;101478.84;12249363;19;19915;-84
2023/10/08 01:21:04;;;;;;;;;;;16.70;55.40;;;15.55;56.96;101445.97;12247302;19;19947;-84
2023/10/08 01:25:07;;;;;;;;;;;16.70;54.90;;;15.64;56.98;101474.38;12252000;19;19929;-84
2023/10/08 01:29:18;;;;;;;;;;;16.70;55.00;;;15.70;57.12;101482.72;12248877;19;19967;-84
2023/10/08 01:33:27;;;;;;;;;;;16.60;54.90;;;15.65;57.02;101476.88;12251247;19;19927;-84
2023/10/08 01:37:33;;;;;;;;;;;16.60;54.90;;;15.65;57.00;101492.69;12248731;19;19914;-84
2023/10/08 01:41:40;;;;;;;;;;;16.60;55.00;;;15.63;56.99;101496.34;12248608;19;20341;-84
2023/10/08 01:45:43;;;;;;;;;;;16.60;55.00;;;15.61;56.84;101495.63;12248535;19;20024;-84
2023/10/08 01:49:46;;;;;;;;;;;16.50;55.10;;;15.54;57.00;101489.06;12243061;19;19915;-84
2023/10/08 01:53:47;;;;;;;;;;;16.60;55.10;;;15.56;57.04;101493.28;12253028;19;19911;-85
2023/10/08 01:57:52;;;;;;;;;;;16.60;55.10;;;15.60;57.02;101502.66;12247286;19;19979;-84
2023/10/08 02:01:57;;;;;;;;;;;16.50;55.00;;;15.37;57.18;101482.25;12245868;19;20001;-84
2023/10/08 02:05:59;;;;;;;;;;;16.60;55.00;;;15.55;57.01;101527.59;12247718;19;19926;-84
2023/10/08 02:10:01;;;;;;;;;;;16.50;55.00;;;15.58;57.11;101535.28;12246852;19;19932;-84
2023/10/08 02:14:04;;;;;;;;;;;16.50;55.10;;;15.57;57.07;101523.09;12247628;19;19926;-84
2023/10/08 02:18:06;;;;;;;;;;;16.50;55.10;;;15.37;57.05;101503.31;12248174;19;19955;-84
2023/10/08 02:22:09;;;;;;;;;;;16.50;55.10;;;15.39;57.17;101510.16;12249329;19;19947;-84
2023/10/08 02:26:11;;;;;;;;;;;16.50;55.10;;;15.57;57.12;101541.50;12249029;19;19938;-84
2023/10/08 02:30:13;;;;;;;;;;;16.50;55.10;;;15.53;57.19;101572.47;12247539;19;19915;-84
2023/10/08 02:34:15;;;;;;;;;;;16.50;55.10;;;15.45;56.93;101549.25;12249314;19;19919;-84
2023/10/08 02:38:18;;;;;;;;;;;16.50;55.00;;;15.52;57.20;101596.25;12247160;19;19919;-85
2023/10/08 02:42:21;;;;;;;;;;;16.50;55.10;;;15.46;57.37;101615.91;12248327;19;19907;-84
2023/10/08 02:46:26;;;;;;;;;;;16.40;55.10;;;15.47;57.25;101605.28;12247042;19;19919;-84
2023/10/08 02:50:28;;;;;;;;;;;16.40;55.10;;;15.41;57.23;101583.75;12244424;19;19914;-84
2023/10/08 02:54:36;;;;;;;;;;;16.40;55.20;;;15.39;57.22;101596.13;12246148;19;19923;-84
2023/10/08 02:58:39;;;;;;;;;;;16.40;55.20;;;15.38;57.11;101599.72;12242469;19;19926;-84
2023/10/08 03:02:40;;;;;;;;;;;16.40;55.20;;;15.43;57.10;101614.28;12245842;19;19915;-84
2023/10/08 03:06:41;;;;;;;;;;;16.40;55.30;;;15.35;57.25;101595.50;12246745;19;19926;-84
2023/10/08 03:10:44;;;;;;;;;;;16.40;55.20;;;15.43;57.19;101614.28;12244041;19;19953;-84
2023/10/08 03:15:00;;;;;;;;;;;16.30;55.10;;;15.41;57.42;101599.53;12252934;19;19927;-84
2023/10/08 03:19:05;;;;;;;;;;;16.30;55.20;;;15.36;57.22;101609.50;12256847;19;20344;-85
2023/10/08 03:23:22;;;;;;;;;;;16.30;55.20;;;15.22;57.11;101574.34;12258293;19;19926;-84
2023/10/08 03:27:26;;;;;;;;;;;16.30;55.10;;;15.34;57.10;101606.09;12260971;19;19983;-84
2023/10/08 03:35:52;;;;;;;;;;;16.30;55.10;;;15.34;57.16;101612.25;12261089;19;20466;-84
2023/10/08 03:40:06;;;;;;;;;;;16.20;55.10;;;15.34;57.20;101638.56;12257397;19;19919;-84
2023/10/08 03:44:16;;;;;;;;;;;16.20;55.20;;;15.17;57.25;101628.19;12261146;19;19919;-84
2023/10/08 03:48:20;;;;;;;;;;;16.30;55.20;;;15.03;57.41;101619.34;12256144;19;19922;-85
2023/10/08 03:52:25;;;;;;;;;;;16.30;55.20;;;15.14;57.43;101641.53;12262288;19;20275;-85
2023/10/08 03:56:31;;;;;;;;;;;16.30;55.20;;;15.19;57.42;101663.16;12258717;19;19919;-85
2023/10/08 04:00:40;;;;;;;;;;;16.20;55.20;;;15.21;57.53;101691.06;12257185;19;19919;-85
2023/10/08 04:04:49;;;;;;;;;;;16.20;55.30;;;15.21;57.43;101698.13;12258273;19;20341;-85
2023/10/08 04:13:09;;;;;;;;;;;16.20;55.20;;;15.27;57.31;101714.38;12259273;19;19914;-85
2023/10/08 04:17:11;;;;;;;;;;;16.20;55.20;;;15.21;57.40;101700.75;12257546;19;19923;-85
2023/10/08 04:21:13;;;;;;;;;;;16.30;55.30;;;15.18;57.30;101700.94;12258605;19;20410;-85
2023/10/08 04:25:15;;;;;;;;;;;16.20;55.20;;;15.18;57.45;101703.56;12255308;19;19911;-85
2023/10/08 04:29:22;;;;;;;;;;;16.30;55.30;;;15.28;57.37;101731.00;12252308;19;20215;-85
2023/10/08 04:33:24;;;;;;;;;;;16.30;55.20;;;15.33;57.52;101750.00;12258294;19;20589;-85
2023/10/08 04:37:32;;;;;;;;;;;16.30;55.20;;;15.30;57.50;101747.56;12256840;19;19985;-85
2023/10/08 04:41:39;;;;;;;;;;;16.30;55.20;;;15.11;57.26;101732.00;12259129;19;19925;-85
2023/10/08 04:45:41;;;;;;;;;;;16.30;55.20;;;15.20;57.41;101762.19;12254967;19;20526;-85
2023/10/08 04:49:45;;;;;;;;;;;16.20;55.10;;;15.27;57.45;101769.66;12252638;19;19919;-85
2023/10/08 04:53:47;;;;;;;;;;;16.30;55.20;;;15.27;57.49;101760.91;12255436;19;20310;-85
2023/10/08 04:57:49;;;;;;;;;;;16.20;55.10;;;15.25;57.53;101768.03;12254199;19;19911;-85
2023/10/08 05:06:21;;;;;;;;;;;16.20;55.10;;;15.24;57.56;101779.50;12254058;19;19935;-85
2023/10/08 05:23:05;;;;;;;;;;;16.20;55.00;;;15.14;57.65;101810.75;12252119;19;19922;-85
2023/10/08 05:31:47;;;;;;;;;;;16.20;54.90;;;15.07;57.50;101824.34;12253233;19;19918;-84
2023/10/08 05:35:49;;;;;;;;;;;16.10;55.20;;;15.05;57.58;101848.13;12248812;19;19974;-84
2023/10/08 05:40:10;;;;;;;;;;;16.10;54.90;;;15.10;57.53;101853.13;12250317;19;19915;-85
2023/10/08 05:44:24;;;;;;;;;;;16.10;54.90;;;15.07;57.52;101869.06;12247453;19;19925;-84
2023/10/08 05:48:27;;;;;;;;;;;16.00;54.90;;;15.06;57.63;101876.13;12250942;19;20343;-85
2023/10/08 05:52:50;;;;;;;;;;;16.00;54.90;;;15.00;57.35;101877.31;12257710;19;19911;-84
2023/10/08 06:01:26;;;;;;;;;;;16.00;54.90;;;15.00;57.63;101886.97;12259966;19;19978;-85
2023/10/08 06:05:33;;;;;;;;;;;16.00;55.00;;;14.96;57.47;101877.53;12254093;19;19914;-85
2023/10/08 06:09:39;;;;;;;;;;;16.00;55.00;;;14.98;57.58;101908.09;12257925;19;19926;-85
2023/10/08 06:13:46;;;;;;;;;;;15.90;55.00;;;14.94;57.62;101913.63;12263033;19;19919;-85
2023/10/08 06:18:04;;;;;;;;;;;16.00;55.00;;;14.95;57.59;101939.84;12253124;19;19926;-83
2023/10/08 06:22:05;;;;;;;;;;;15.90;55.00;;;14.92;57.46;101944.41;12250753;19;19918;-84
2023/10/08 06:30:16;;;;;;;;;;;15.90;55.10;;;14.86;57.44;101971.91;12246602;19;19934;-85
2023/10/08 06:34:21;;;;;;;;;;;15.90;55.10;;;14.81;57.68;101960.78;12249579;19;19974;-84
2023/10/08 06:38:24;;;;;;;;;;;15.80;55.10;;;14.86;57.54;101973.69;12252744;19;19927;-83
2023/10/08 06:42:27;;;;;;;;;;;15.90;55.20;;;14.88;57.52;101995.47;12256082;19;20034;-84
2023/10/08 06:46:32;;;;;;;;;;;15.90;55.20;;;14.85;57.53;101979.88;12259326;19;19922;-85
2023/10/08 06:50:35;;;;;;;;;;;15.90;55.20;;;14.89;57.69;101997.19;12280993;19;19932;-85
2023/10/08 06:54:37;;;;;;;;;;;15.90;55.20;;;14.91;57.75;102014.59;12282561;19;19934;-85
2023/10/08 06:58:40;;;;;;;;;;;15.90;55.30;;;14.88;57.66;102014.75;12255738;19;19927;-84
2023/10/08 07:02:42;;;;;;;;;;;15.90;55.30;;;14.82;57.81;102010.69;12258760;19;19921;-84
2023/10/08 07:06:46;;;;;;;;;;;15.90;55.40;;;14.90;57.63;102025.19;12256877;19;20345;-84
2023/10/08 07:10:47;;;;;;;;;;;15.90;55.30;;;14.96;57.67;102033.63;12254086;19;19926;-85
2023/10/08 07:14:48;;;;;;;;;;;15.90;55.30;;;14.90;57.77;102023.41;12258632;19;20336;-85
2023/10/08 07:18:55;;;;;;;;;;;16.00;55.30;;;14.95;57.73;102039.78;12254530;19;19919;-86
2023/10/08 07:22:56;;;;;;;;;;;16.00;55.20;;;14.92;57.70;102045.22;12271278;19;19915;-85
2023/10/08 07:26:58;;;;;;;;;;;16.00;55.20;;;14.90;57.62;102041.81;12260818;19;19919;-85
2023/10/08 07:31:00;;;;;;;;;;;16.00;55.10;;;14.90;57.58;102054.97;12253538;19;20224;-85
2023/10/08 07:39:33;;;;;;;;;;;16.00;55.10;;;14.82;57.78;102054.50;12268377;19;19915;-85
2023/10/08 07:43:35;;;;;;;;;;;16.00;55.00;;;14.77;57.66;102049.50;12273907;19;19918;-85
2023/10/08 07:47:36;;;;;;;;;;;16.00;54.90;;;14.88;57.72;102079.63;12281410;19;19914;-85
2023/10/08 07:51:38;;;;;;;;;;;15.90;54.90;;;14.86;58.02;102071.84;12281396;19;19963;-85
2023/10/08 07:55:39;;;;;;;;;;;16.00;55.00;;;15.01;58.01;102094.75;12281912;19;19915;-85
2023/10/08 07:59:46;;;;;;;;;;;16.00;55.10;;;14.76;57.92;102041.69;12274686;19;19955;-85
2023/10/08 08:03:48;;;;;;;;;;;16.00;55.20;;;15.07;58.01;102079.53;12268443;19;19925;-85
2023/10/08 08:07:50;;;;;;;;;;;16.10;55.20;;;14.96;57.95;102062.56;12271207;19;20317;-85
2023/10/08 08:11:51;;;;;;;;;;;16.20;55.10;;;15.21;57.75;102108.63;12269045;19;20310;-86
2023/10/08 08:15:58;;;;;;;;;;;16.30;54.90;;;15.19;58.06;102097.31;12269227;19;19919;-85
2023/10/08 08:20:06;;;;;;;;;;;16.40;55.00;;;15.32;57.99;102116.81;12255414;19;19907;-86
2023/10/08 08:24:07;;;;;;;;;;;16.40;55.00;;;15.31;58.14;102107.22;12273512;19;19915;-86
2023/10/08 08:28:16;;;;;;;;;;;16.50;54.80;;;15.45;58.24;102122.28;12268379;19;19911;-86
2023/10/08 08:32:21;;;;;;;;;;;16.60;54.90;;;15.58;58.09;102132.97;12266540;19;19914;-86
2023/10/08 08:36:23;;;;;;;;;;;16.70;54.60;;;15.62;58.14;102135.38;12264624;19;19933;-86
2023/10/08 08:40:25;;;;;;;;;;;16.80;54.50;;;15.69;58.17;102143.84;12249179;19;20599;-86
2023/10/08 08:44:31;;;;;;;;;;;16.80;54.00;;;15.70;58.35;102135.00;12251711;19;19918;-86
2023/10/08 08:48:34;;;;;;;;;;;16.90;54.40;;;15.82;58.24;102155.38;12249564;19;19931;-85
2023/10/08 08:52:39;;;;;;;;;;;17.00;54.40;;;15.93;58.23;102154.81;12253469;19;19911;-86
2023/10/08 08:56:43;;;;;;;;;;;17.10;54.00;;;15.96;58.21;102166.97;12250732;19;19919;-85
2023/10/08 09:00:47;;;;;;;;;;;17.20;53.80;;;15.99;58.21;102154.50;12248066;19;20349;-86
2023/10/08 09:04:53;;;;;;;;;;;17.30;54.10;;;16.25;58.29;102183.81;12250377;19;19929;-87
2023/10/08 09:09:11;;;;;;;;;;;17.40;54.10;;;16.34;58.28;102183.31;12250892;19;19914;-87
2023/10/08 09:13:12;;;;;;;;;;;17.50;53.60;;;16.24;58.33;102148.69;12247446;19;19975;-87
2023/10/08 09:17:16;;;;;;;;;;;17.70;53.50;;;16.43;58.18;102171.38;12248173;19;19915;-88
2023/10/08 09:21:21;;;;;;;;;;;17.70;53.80;;;16.54;58.28;102174.25;12250459;19;20339;-87
2023/10/08 09:25:24;;;;;;;;;;;17.80;53.80;;;16.63;58.43;102184.25;12249468;19;20333;-87
2023/10/08 09:29:26;;;;;;;;;;;17.80;54.00;;;16.76;58.26;102176.50;12246475;19;19923;-87
2023/10/08 09:33:28;;;;;;;;;;;17.90;54.10;;;16.83;58.46;102180.53;12248381;19;19922;-88
2023/10/08 09:37:29;;;;;;;;;;;18.10;54.10;;;16.90;58.24;102184.47;12240811;19;20285;-86
2023/10/08 09:41:32;;;;;;;;;;;18.20;53.70;;;17.05;58.32;102195.94;12249846;19;19918;-85
2023/10/08 09:45:34;;;;;;;;;;;18.30;53.30;;;17.05;58.16;102190.66;12255854;19;19919;-85
2023/10/08 09:49:42;;;;;;;;;;;18.30;53.40;;;17.14;58.28;102198.03;12250801;19;20341;-84
2023/10/08 09:53:44;;;;;;;;;;;18.40;53.20;;;17.23;58.20;102204.56;12248765;19;20270;-85
2023/10/08 09:57:46;;;;;;;;;;;18.40;52.90;;;17.24;57.95;102193.06;12246626;19;19951;-85
2023/10/08 10:01:48;;;;;;;;;;;18.50;51.90;;;17.29;57.92;102192.78;12267769;19;19922;-86
2023/10/08 10:05:50;;;;;;;;;;;18.60;53.10;;;17.41;58.08;102206.09;12270026;19;19947;-85
2023/10/08 10:09:55;;;;;;;;;;;18.60;52.80;;;17.45;57.92;102206.78;12254637;19;19957;-85
2023/10/08 10:14:00;;;;;;;;;;;18.70;52.60;;;17.51;58.09;102211.69;12251468;19;19919;-85
2023/10/08 10:18:28;;;;;;;;;;;18.80;52.70;;;17.64;57.97;102217.91;12261265;19;19939;-86
2023/10/08 10:22:33;;;;;;;;;;;18.80;53.00;;;17.71;57.92;102213.09;12257208;19;20018;-85
2023/10/08 10:26:36;;;;;;;;;;;18.90;52.90;;;17.79;57.82;102215.28;12257396;19;19923;-84
2023/10/08 10:30:39;;;;;;;;;;;19.00;52.80;;;17.78;57.83;102203.00;12259364;19;20299;-85
2023/10/08 10:34:42;;;;;;;;;;;19.10;52.30;;;17.96;57.78;102217.75;12256413;19;19910;-84
2023/10/08 10:38:43;;;;;;;;;;;19.10;52.40;;;17.99;57.74;102217.56;12264312;19;20335;-84
2023/10/08 10:42:53;;;;;;;;;;;19.20;52.50;;;18.03;57.75;102211.13;12275120;19;19930;-84
2023/10/08 10:51:18;;;;;;;;;;;19.40;52.00;;;18.27;57.60;102231.69;12279431;19;19922;-84
2023/10/08 10:55:31;;;;;;;;;;;19.50;52.00;;;18.35;57.71;102229.38;12277418;19;19934;-84
2023/10/08 10:59:38;;;;;;;;;;;19.60;52.30;;;18.39;57.34;102232.69;12274762;19;19923;-84
2023/10/08 11:03:42;;;;;;;;;;;19.60;52.10;;;18.39;57.37;102222.97;12275077;19;20333;-84
2023/10/08 11:07:44;;;;;;;;;;;19.60;51.90;;;18.33;57.14;102210.13;12276520;19;19964;-84
2023/10/08 11:11:54;;;;;;;;;;;19.70;51.90;;;18.45;57.40;102219.06;12278421;19;19911;-84
2023/10/08 11:15:57;;;;;;;;;;;19.70;51.40;;;18.34;57.05;102215.31;12271790;19;19922;-84
2023/10/08 11:19:59;;;;;;;;;;;19.70;50.80;;;18.47;56.87;102238.31;12259016;19;19922;-84
2023/10/08 11:24:08;;;;;;;;;;;19.70;51.10;;;18.41;56.90;102212.28;12269461;19;19914;-84
2023/10/08 11:28:12;;;;;;;;;;;19.70;51.30;;;18.49;56.85;102212.63;12267747;19;19922;-84
2023/10/08 11:32:25;;;;;;;;;;;19.70;50.80;;;18.47;56.87;102214.50;12271404;19;19927;-84
2023/10/08 11:36:28;;;;;;;;;;;19.70;51.00;;;18.44;56.64;102218.19;12274640;19;20044;-84
2023/10/08 11:40:46;;;;;;;;;;;19.60;50.80;;;18.43;56.55;102224.44;12281006;19;19930;-84
2023/10/08 11:44:52;;;;;;;;;;;19.60;50.50;;;18.41;56.76;102221.06;12284810;19;19919;-84
2023/10/08 11:48:58;;;;;;;;;;;19.60;48.50;;;18.48;56.39;102224.16;12278518;19;19923;-85
2023/10/08 11:53:05;;;;;;;;;;;19.70;49.80;;;18.37;56.33;102206.34;12279845;19;19922;-85
2023/10/08 11:57:09;;;;;;;;;;;19.70;49.10;;;18.47;56.37;102212.75;12274710;19;19926;-85
2023/10/08 12:01:17;;;;;;;;;;;19.70;50.10;;;18.53;56.04;102222.91;12273341;19;19943;-84
2023/10/08 12:05:19;;;;;;;;;;;19.70;50.10;;;18.50;55.96;102225.75;12276702;19;19971;-84
2023/10/08 12:09:21;;;;;;;;;;;19.70;50.70;;;18.42;55.86;102217.47;12268743;19;20296;-85
2023/10/08 12:13:24;;;;;;;;;;;19.70;50.20;;;18.46;56.09;102228.69;12278569;19;20870;-85
2023/10/08 12:17:37;;;;;;;;;;;19.60;49.90;;;18.44;56.19;102231.44;12282689;19;19935;-84
2023/10/08 12:21:39;;;;;;;;;;;19.60;50.10;;;18.48;56.02;102240.88;12284256;19;20233;-84
2023/10/08 12:25:45;;;;;;;;;;;19.60;50.00;;;18.45;55.79;102230.50;12282333;19;20344;-83
2023/10/08 12:29:49;;;;;;;;;;;19.60;49.10;;;18.48;55.71;102232.09;12265599;19;19919;-84
2023/10/08 12:33:57;;;;;;;;;;;19.60;49.90;;;18.55;55.99;102226.31;12263278;19;19939;-84
2023/10/08 12:37:58;;;;;;;;;;;19.60;48.60;;;18.55;55.65;102215.75;12270215;19;19927;-84
2023/10/08 12:42:04;;;;;;;;;;;19.60;46.80;;;18.51;55.44;102203.63;12269987;19;19954;-83
2023/10/08 12:46:10;;;;;;;;;;;19.60;47.70;;;18.43;55.30;102190.06;12280567;19;19919;-85
2023/10/08 12:50:15;;;;;;;;;;;19.70;48.60;;;18.48;55.18;102201.19;12256426;19;19933;-85
2023/10/08 12:54:21;;;;;;;;;;;19.60;49.30;;;18.46;55.22;102203.09;12285317;19;19944;-83
2023/10/08 12:58:29;;;;;;;;;;;19.60;49.40;;;18.31;55.33;102185.59;12261997;19;20469;-85
2023/10/08 13:02:31;;;;;;;;;;;19.60;49.50;;;18.51;55.25;102211.56;12266972;19;19935;-84
2023/10/08 13:06:33;;;;;;;;;;;19.60;47.60;;;18.51;55.29;102197.50;12272222;19;19996;-85
2023/10/08 13:10:35;;;;;;;;;;;19.60;49.10;;;18.29;55.39;102171.59;12272852;19;19963;-84
2023/10/08 13:14:36;;;;;;;;;;;19.60;46.70;;;18.48;54.94;102198.56;12270568;19;19911;-84
2023/10/08 13:18:40;;;;;;;;;;;19.60;48.40;;;18.40;54.79;102178.84;12274138;19;19930;-83
2023/10/08 13:22:43;;;;;;;;;;;19.50;48.80;;;18.36;55.06;102183.47;12273244;19;19923;-84
2023/10/08 13:26:47;;;;;;;;;;;19.50;47.60;;;18.30;54.94;102183.88;12272563;19;20333;-84
2023/10/08 13:30:52;;;;;;;;;;;19.40;47.50;;;18.03;54.53;102154.75;12262239;19;19930;-84
2023/10/08 13:34:53;;;;;;;;;;;19.40;47.30;;;18.04;54.86;102153.84;12268410;19;20234;-85
2023/10/08 13:38:55;;;;;;;;;;;19.30;48.50;;;18.25;54.77;102191.25;12260032;19;20038;-85
2023/10/08 13:42:58;;;;;;;;;;;19.30;48.10;;;18.28;54.62;102198.97;12266982;19;19918;-85
2023/10/08 13:47:05;;;;;;;;;;;19.30;48.60;;;18.01;54.47;102149.59;12266192;19;19922;-84
2023/10/08 13:51:14;;;;;;;;;;;19.30;48.50;;;18.26;54.69;102195.59;12258106;19;19923;-85
2023/10/08 13:55:19;;;;;;;;;;;19.30;49.00;;;18.20;54.58;102183.63;12265469;19;20411;-84
2023/10/08 13:59:24;;;;;;;;;;;19.30;49.10;;;18.25;54.59;102197.38;12263771;19;19955;-85
2023/10/08 14:03:31;;;;;;;;;;;19.20;48.90;;;18.12;54.26;102194.69;12265248;19;19926;-85
2023/10/08 14:07:35;;;;;;;;;;;19.20;48.00;;;18.20;54.33;102219.78;12264565;19;20524;-85
2023/10/08 14:11:36;;;;;;;;;;;19.20;48.40;;;18.12;54.29;102209.72;12265663;19;19915;-85
2023/10/08 14:15:44;;;;;;;;;;;19.20;48.20;;;18.07;54.17;102212.63;12262192;19;19970;-85
2023/10/08 14:19:52;;;;;;;;;;;19.20;47.90;;;18.06;53.93;102197.69;12262109;19;19927;-85
2023/10/08 14:23:56;;;;;;;;;;;19.10;47.60;;;18.13;53.95;102191.09;12264392;19;19922;-85
2023/10/08 14:28:04;;;;;;;;;;;19.10;47.80;;;18.10;54.02;102190.44;12265063;19;19935;-85
2023/10/08 14:32:09;;;;;;;;;;;19.10;48.60;;;18.04;54.03;102194.34;12260916;19;19914;-85
2023/10/08 14:44:51;;;;;;;;;;;19.00;48.40;;;17.92;53.96;102184.53;12261943;19;19927;-85
2023/10/08 14:48:55;;;;;;;;;;;19.00;47.90;;;17.83;53.91;102172.75;12262242;19;19923;-85
2023/10/08 14:52:56;;;;;;;;;;;18.90;48.20;;;17.98;53.64;102201.78;12259049;19;19957;-85
2023/10/08 14:56:58;;;;;;;;;;;19.00;48.00;;;17.91;53.84;102194.25;12264984;19;19927;-85
2023/10/08 15:01:00;;;;;;;;;;;18.90;48.10;;;17.82;53.89;102189.56;12261241;19;19923;-85
2023/10/08 15:05:02;;;;;;;;;;;18.90;48.50;;;17.74;53.84;102168.00;12262868;19;19911;-85
2023/10/08 15:09:18;;;;;;;;;;;18.90;47.80;;;17.84;53.49;102187.63;12262709;19;19978;-85
2023/10/08 15:13:20;;;;;;;;;;;18.90;48.40;;;17.83;53.47;102207.09;12274693;19;19928;-86
2023/10/08 15:17:21;;;;;;;;;;;18.80;48.20;;;17.83;53.51;102208.88;12270753;19;19911;-84
2023/10/08 15:21:24;;;;;;;;;;;18.80;48.60;;;17.79;53.61;102199.44;12269495;19;19914;-85
2023/10/08 15:25:25;;;;;;;;;;;18.80;48.40;;;17.72;53.64;102182.25;12268121;19;19922;-84
2023/10/08 15:29:27;;;;;;;;;;;18.80;48.50;;;17.82;53.44;102202.75;12268308;19;19919;-85
2023/10/08 15:33:29;;;;;;;;;;;18.80;48.70;;;17.82;53.37;102215.09;12275836;19;20338;-85
2023/10/08 15:37:30;;;;;;;;;;;18.70;48.70;;;17.71;53.49;102202.53;12271659;19;19919;-85
2023/10/08 15:41:31;;;;;;;;;;;18.70;48.70;;;17.67;53.35;102201.88;12273817;19;19911;-85
2023/10/08 15:45:33;;;;;;;;;;;18.70;48.80;;;17.50;53.52;102178.28;12273353;19;19996;-85
2023/10/08 15:49:34;;;;;;;;;;;18.70;48.80;;;17.75;53.35;102224.34;12269905;19;19982;-85
2023/10/08 15:53:36;;;;;;;;;;;18.60;48.80;;;17.66;53.52;102216.03;12269382;19;19915;-84
2023/10/08 15:57:38;;;;;;;;;;;18.70;48.80;;;17.62;53.19;102219.78;12267891;19;19911;-85
2023/10/08 16:01:43;;;;;;;;;;;18.70;49.00;;;17.60;53.28;102226.94;12268655;19;20306;-85
2023/10/08 16:05:48;;;;;;;;;;;18.60;49.10;;;17.54;53.36;102231.78;12270255;19;19919;-84
2023/10/08 16:09:50;;;;;;;;;;;18.50;49.20;;;17.52;53.13;102239.78;12263594;19;19915;-85
2023/10/08 16:13:52;;;;;;;;;;;18.50;49.30;;;17.47;53.11;102241.84;12267382;19;19914;-85
2023/10/08 16:17:56;;;;;;;;;;;18.40;49.20;;;17.41;52.84;102255.41;12265192;19;19917;-85
2023/10/08 16:21:57;;;;;;;;;;;18.40;49.30;;;17.17;53.25;102228.69;12263799;19;19927;-85
2023/10/08 16:26:00;;;;;;;;;;;18.30;49.20;;;17.05;53.11;102221.50;12266247;19;20272;-85
2023/10/08 16:30:02;;;;;;;;;;;18.20;49.20;;;17.09;53.01;102247.59;12256177;19;19980;-84
2023/10/08 16:34:03;;;;;;;;;;;18.10;49.30;;;16.93;52.93;102229.19;12256302;19;19918;-87
2023/10/08 16:38:05;;;;;;;;;;;18.10;49.40;;;17.05;53.22;102261.09;12260058;19;19915;-85
2023/10/08 16:42:08;;;;;;;;;;;18.00;49.50;;;16.99;53.09;102264.94;12260797;19;19988;-87
2023/10/08 16:46:10;;;;;;;;;;;17.90;49.60;;;16.90;52.96;102252.25;12264007;19;19936;-84
2023/10/08 16:50:11;;;;;;;;;;;17.80;49.80;;;16.79;53.16;102245.78;12265919;19;20360;-86
2023/10/08 16:54:18;;;;;;;;;;;17.80;49.90;;;16.83;53.27;102257.03;12266599;19;19944;-85
2023/10/08 16:58:20;;;;;;;;;;;17.70;49.90;;;16.54;52.95;102219.94;12261580;19;20025;-85
2023/10/08 17:02:22;;;;;;;;;;;17.70;50.00;;;16.71;53.26;102258.53;12261901;19;19951;-85
2023/10/08 17:06:23;;;;;;;;;;;17.60;49.90;;;16.45;53.17;102224.91;12260588;19;19915;-85
2023/10/08 17:10:29;;;;;;;;;;;17.50;49.90;;;16.62;53.02;102259.06;12259166;19;19918;-85
2023/10/08 17:14:30;;;;;;;;;;;17.50;49.90;;;16.42;52.95;102230.31;12260710;19;19914;-85
2023/10/08 17:18:32;;;;;;;;;;;17.40;49.90;;;16.19;53.21;102205.25;12256906;19;19926;-85
2023/10/08 17:22:34;;;;;;;;;;;17.30;50.00;;;16.32;53.11;102235.25;12258712;19;19919;-85
2023/10/08 17:26:36;;;;;;;;;;;17.30;50.10;;;16.36;53.20;102248.19;12257142;19;19914;-86
2023/10/08 17:30:38;;;;;;;;;;;17.30;50.20;;;16.32;53.27;102244.00;12252002;19;19962;-85
2023/10/08 17:34:40;;;;;;;;;;;17.20;50.20;;;16.28;53.14;102239.00;12254194;19;19943;-85
2023/10/08 17:38:41;;;;;;;;;;;17.20;50.30;;;16.34;53.07;102244.78;12251003;19;19983;-85
2023/10/08 17:42:43;;;;;;;;;;;17.20;50.30;;;16.22;53.16;102224.34;12255445;19;19936;-84
2023/10/08 17:46:45;;;;;;;;;;;17.10;50.30;;;16.21;53.07;102235.84;12253479;19;19915;-85
2023/10/08 17:50:46;;;;;;;;;;;17.00;50.20;;;16.11;53.19;102219.69;12254688;19;19915;-84
2023/10/08 17:54:48;;;;;;;;;;;17.00;50.30;;;15.80;52.96;102175.72;12250747;19;19939;-85
2023/10/08 17:58:49;;;;;;;;;;;16.90;50.30;;;16.01;53.11;102221.09;12252830;19;19915;-85
2023/10/08 18:02:50;;;;;;;;;;;16.90;50.30;;;15.87;53.14;102203.41;12249512;19;19946;-84
2023/10/08 18:06:52;;;;;;;;;;;16.80;50.40;;;15.87;53.21;102199.94;12255279;19;20351;-85
2023/10/08 18:10:59;;;;;;;;;;;16.80;50.50;;;15.96;53.34;102220.53;12249209;19;19919;-85
2023/10/08 18:15:01;;;;;;;;;;;16.70;50.50;;;15.81;53.29;102193.22;12253749;19;19930;-85
2023/10/08 18:19:03;;;;;;;;;;;16.80;50.60;;;15.83;53.26;102193.13;12251909;19;19922;-84
2023/10/08 18:23:05;;;;;;;;;;;16.80;50.70;;;15.83;53.51;102196.63;12251806;19;19911;-85
2023/10/08 18:27:08;;;;;;;;;;;16.80;50.70;;;15.83;53.39;102187.88;12253857;19;19960;-85
2023/10/08 18:31:10;;;;;;;;;;;16.80;50.70;;;15.85;53.31;102194.75;12252300;19;19918;-85
2023/10/08 18:35:13;;;;;;;;;;;16.80;50.70;;;15.74;53.47;102175.19;12252711;19;19982;-84
2023/10/08 18:39:15;;;;;;;;;;;16.70;50.60;;;15.68;53.24;102166.66;12250276;19;19934;-84
2023/10/08 18:43:18;;;;;;;;;;;16.70;50.60;;;15.72;53.36;102167.38;12253086;19;19922;-84
2023/10/08 18:47:22;;;;;;;;;;;16.60;50.50;;;15.67;53.50;102177.28;12250970;19;19970;-84
2023/10/08 18:51:24;;;;;;;;;;;16.60;50.60;;;15.49;53.37;102156.22;12246929;19;19923;-84
2023/10/08 18:55:26;;;;;;;;;;;16.50;50.60;;;15.64;53.29;102182.72;12250196;19;19922;-85
2023/10/08 18:59:27;;;;;;;;;;;16.50;50.60;;;15.64;53.43;102185.34;12249035;19;19930;-84
2023/10/08 19:03:33;;;;;;;;;;;16.50;50.60;;;15.59;53.53;102184.72;12249124;19;19922;-85
2023/10/08 19:07:35;;;;;;;;;;;16.50;50.60;;;15.55;53.46;102175.28;12247170;19;19997;-84
2023/10/08 19:11:38;;;;;;;;;;;16.50;50.60;;;15.59;53.32;102184.72;12248073;19;20268;-84
2023/10/08 19:15:39;;;;;;;;;;;16.50;50.60;;;15.53;53.31;102183.28;12249541;19;20345;-85